createdAt,value
2022-11-29T00:00:33.604Z,1000.15
2022-11-29T00:01:34.695Z,1000.14
2022-11-29T00:02:33.726Z,1000.12
2022-11-29T00:03:33.584Z,1000.13
2022-11-29T00:04:34.534Z,1000.16
2022-11-29T00:05:33.716Z,1000.16
2022-11-29T00:06:33.563Z,1000.14
2022-11-29T00:07:33.738Z,1000.15
2022-11-29T00:08:33.489Z,1000.12
2022-11-29T00:09:33.491Z,1000.16
2022-11-29T00:10:33.692Z,1000.10
2022-11-29T00:11:33.477Z,1000.13
2022-11-29T00:12:33.449Z,1000.14
2022-11-29T00:13:33.414Z,1000.12
2022-11-29T00:14:33.429Z,1000.13
2022-11-29T00:15:33.386Z,1000.14
2022-11-29T00:16:33.484Z,1000.14
2022-11-29T00:17:33.389Z,1000.13
2022-11-29T00:18:33.377Z,1000.13
2022-11-29T00:19:33.348Z,1000.12
2022-11-29T00:20:33.348Z,1000.12
2022-11-29T00:21:33.365Z,1000.15
2022-11-29T00:22:33.371Z,1000.11
2022-11-29T00:23:33.318Z,1000.11
2022-11-29T00:24:33.321Z,1000.11
2022-11-29T00:25:33.283Z,1000.10
2022-11-29T00:26:33.290Z,1000.08
2022-11-29T00:27:33.302Z,1000.05
2022-11-29T00:28:33.272Z,1000.04
2022-11-29T00:29:33.236Z,1000.02
2022-11-29T00:30:33.281Z,1000.07
2022-11-29T00:31:34.238Z,1000.09
2022-11-29T00:32:33.260Z,1000.08
2022-11-29T00:33:33.198Z,1000.09
2022-11-29T00:34:33.210Z,1000.11
2022-11-29T00:35:33.192Z,1000.10
2022-11-29T00:36:33.181Z,1000.09
2022-11-29T00:37:33.191Z,1000.10
2022-11-29T00:38:33.160Z,1000.09
2022-11-29T00:39:33.158Z,1000.04
2022-11-29T00:40:33.130Z,1000.04
2022-11-29T00:41:33.122Z,1000.07
2022-11-29T00:42:33.118Z,1000.06
2022-11-29T00:43:33.151Z,1000.09
2022-11-29T00:44:33.350Z,1000.08
2022-11-29T00:45:33.098Z,1000.04
2022-11-29T00:46:33.079Z,1000.07
2022-11-29T00:47:33.073Z,1000.10
2022-11-29T00:48:33.078Z,1000.09
2022-11-29T00:49:36.072Z,1000.07
2022-11-29T00:50:33.040Z,1000.10
2022-11-29T00:51:33.022Z,1000.10
2022-11-29T00:52:33.017Z,1000.11
2022-11-29T00:53:33.029Z,1000.09
2022-11-29T00:54:33.025Z,1000.10
2022-11-29T00:55:33.009Z,1000.09
2022-11-29T00:56:32.983Z,1000.08
2022-11-29T00:57:32.976Z,1000.11
2022-11-29T00:58:33.174Z,1000.11
2022-11-29T00:59:32.982Z,1000.13
2022-11-29T01:00:32.941Z,1000.13
2022-11-29T01:01:33.021Z,1000.14
2022-11-29T01:02:32.932Z,1000.16
2022-11-29T01:03:32.947Z,1000.13
2022-11-29T01:04:32.911Z,1000.15
2022-11-29T01:05:32.897Z,1000.13
2022-11-29T01:06:32.888Z,1000.16
2022-11-29T01:07:32.903Z,1000.14
2022-11-29T01:08:32.865Z,1000.16
2022-11-29T01:09:32.896Z,1000.18
2022-11-29T01:10:32.829Z,1000.15
2022-11-29T01:11:32.833Z,1000.15
2022-11-29T01:12:32.796Z,1000.15
2022-11-29T01:13:32.826Z,1000.14
2022-11-29T01:14:32.784Z,1000.17
2022-11-29T01:15:32.845Z,1000.16
2022-11-29T01:16:32.904Z,1000.13
2022-11-29T01:17:32.757Z,1000.14
2022-11-29T01:18:32.739Z,1000.15
2022-11-29T01:19:32.748Z,1000.16
2022-11-29T01:20:32.751Z,1000.22
2022-11-29T01:21:32.725Z,1000.19
2022-11-29T01:22:32.682Z,1000.17
2022-11-29T01:23:32.697Z,1000.15
2022-11-29T01:24:32.684Z,1000.19
2022-11-29T01:25:32.704Z,1000.19
2022-11-29T01:26:32.697Z,1000.18
2022-11-29T01:27:32.670Z,1000.22
2022-11-29T01:28:32.876Z,1000.21
2022-11-29T01:29:32.637Z,1000.19
2022-11-29T01:30:32.644Z,1000.22
2022-11-29T01:31:32.663Z,1000.23
2022-11-29T01:32:32.593Z,1000.22
2022-11-29T01:33:32.600Z,1000.28
2022-11-29T01:34:32.603Z,1000.25
2022-11-29T01:35:32.600Z,1000.24
2022-11-29T01:36:32.577Z,1000.22
2022-11-29T01:37:32.570Z,1000.28
2022-11-29T01:38:32.540Z,1000.24
2022-11-29T01:39:32.529Z,1000.26
2022-11-29T01:40:32.508Z,1000.27
2022-11-29T01:41:32.508Z,1000.24
2022-11-29T01:42:32.503Z,1000.26
2022-11-29T01:43:32.484Z,1000.28
2022-11-29T01:44:32.466Z,1000.30
2022-11-29T01:45:32.469Z,1000.28
2022-11-29T01:46:32.447Z,1000.34
2022-11-29T01:47:32.478Z,1000.32
2022-11-29T01:48:32.424Z,1000.34
2022-11-29T01:49:32.447Z,1000.30
2022-11-29T01:50:32.407Z,1000.31
2022-11-29T01:51:32.484Z,1000.34
2022-11-29T01:52:32.408Z,1000.31
2022-11-29T01:53:32.402Z,1000.32
2022-11-29T01:54:32.381Z,1000.32
2022-11-29T01:55:32.500Z,1000.32
2022-11-29T01:56:32.348Z,1000.36
2022-11-29T01:57:32.383Z,1000.34
2022-11-29T01:58:32.368Z,1000.33
2022-11-29T01:59:32.351Z,1000.32
2022-11-29T02:00:32.352Z,1000.29
2022-11-29T02:01:32.513Z,1000.25
2022-11-29T02:02:32.341Z,1000.23
2022-11-29T02:03:32.320Z,1000.22
2022-11-29T02:04:32.343Z,1000.23
2022-11-29T02:05:32.395Z,1000.19
2022-11-29T02:06:32.259Z,1000.18
2022-11-29T02:07:32.306Z,1000.20
2022-11-29T02:08:32.251Z,1000.22
2022-11-29T02:09:32.218Z,1000.21
2022-11-29T02:10:32.232Z,1000.20
2022-11-29T02:11:32.233Z,1000.24
2022-11-29T02:12:32.179Z,1000.22
2022-11-29T02:13:32.210Z,1000.21
2022-11-29T02:14:32.166Z,1000.24
2022-11-29T02:15:32.208Z,1000.20
2022-11-29T02:16:32.379Z,1000.22
2022-11-29T02:17:32.134Z,1000.22
2022-11-29T02:18:32.160Z,1000.23
2022-11-29T02:19:32.127Z,1000.22
2022-11-29T02:20:32.113Z,1000.26
2022-11-29T02:21:32.096Z,1000.25
2022-11-29T02:22:32.100Z,1000.25
2022-11-29T02:23:32.108Z,1000.26
2022-11-29T02:24:32.064Z,1000.23
2022-11-29T02:25:32.056Z,1000.27
2022-11-29T02:26:32.044Z,1000.26
2022-11-29T02:27:32.049Z,1000.22
2022-11-29T02:28:32.026Z,1000.25
2022-11-29T02:29:32.065Z,1000.27
2022-11-29T02:30:32.068Z,1000.26
2022-11-29T02:31:32.011Z,1000.25
2022-11-29T02:32:31.965Z,1000.29
2022-11-29T02:33:31.970Z,1000.27
2022-11-29T02:34:32.023Z,1000.27
2022-11-29T02:35:31.960Z,1000.31
2022-11-29T02:36:31.943Z,1000.30
2022-11-29T02:37:31.934Z,1000.29
2022-11-29T02:38:31.905Z,1000.31
2022-11-29T02:39:31.908Z,1000.34
2022-11-29T02:40:31.922Z,1000.34
2022-11-29T02:41:31.900Z,1000.38
2022-11-29T02:42:31.878Z,1000.34
2022-11-29T02:43:31.885Z,1000.37
2022-11-29T02:44:31.856Z,1000.35
2022-11-29T02:45:31.891Z,1000.38
2022-11-29T02:46:31.870Z,1000.33
2022-11-29T02:47:31.834Z,1000.33
2022-11-29T02:48:31.816Z,1000.36
2022-11-29T02:49:31.852Z,1000.33
2022-11-29T02:50:31.788Z,1000.35
2022-11-29T02:51:31.785Z,1000.34
2022-11-29T02:52:31.756Z,1000.34
2022-11-29T02:53:31.760Z,1000.38
2022-11-29T02:54:31.761Z,1000.35
2022-11-29T02:55:31.765Z,1000.36
2022-11-29T02:56:31.754Z,1000.36
2022-11-29T02:57:31.717Z,1000.37
2022-11-29T02:58:31.712Z,1000.37
2022-11-29T02:59:31.699Z,1000.38
2022-11-29T03:00:31.699Z,1000.38
2022-11-29T03:01:31.757Z,1000.39
2022-11-29T03:02:31.721Z,1000.40
2022-11-29T03:03:31.659Z,1000.39
2022-11-29T03:04:31.647Z,1000.39
2022-11-29T03:05:31.659Z,1000.40
2022-11-29T03:06:31.639Z,1000.43
2022-11-29T03:07:31.696Z,1000.44
2022-11-29T03:08:31.627Z,1000.46
2022-11-29T03:09:31.635Z,1000.47
2022-11-29T03:10:32.592Z,1000.48
2022-11-29T03:11:31.609Z,1000.50
2022-11-29T03:12:31.561Z,1000.50
2022-11-29T03:13:31.572Z,1000.49
2022-11-29T03:14:31.545Z,1000.54
2022-11-29T03:15:31.882Z,1000.47
2022-11-29T03:16:43.018Z,1000.51
2022-11-29T03:17:31.531Z,1000.54
2022-11-29T03:18:31.501Z,1000.55
2022-11-29T03:19:31.506Z,1000.57
2022-11-29T03:20:31.489Z,1000.54
2022-11-29T03:21:31.478Z,1000.57
2022-11-29T03:22:31.475Z,1000.59
2022-11-29T03:23:31.454Z,1000.62
2022-11-29T03:24:31.431Z,1000.63
2022-11-29T03:25:31.447Z,1000.64
2022-11-29T03:26:31.421Z,1000.61
2022-11-29T03:27:31.441Z,1000.62
2022-11-29T03:28:31.572Z,1000.63
2022-11-29T03:29:31.400Z,1000.64
2022-11-29T03:30:31.391Z,1000.64
2022-11-29T03:31:31.424Z,1000.67
2022-11-29T03:32:31.365Z,1000.66
2022-11-29T03:33:31.355Z,1000.64
2022-11-29T03:34:31.324Z,1000.67
2022-11-29T03:35:31.332Z,1000.68
2022-11-29T03:36:31.334Z,1000.68
2022-11-29T03:37:31.306Z,1000.63
2022-11-29T03:38:31.326Z,1000.64
2022-11-29T03:39:31.298Z,1000.63
2022-11-29T03:40:32.293Z,1000.65
2022-11-29T03:41:31.274Z,1000.64
2022-11-29T03:42:31.256Z,1000.68
2022-11-29T03:43:31.280Z,1000.65
2022-11-29T03:44:31.223Z,1000.67
2022-11-29T03:45:31.231Z,1000.71
2022-11-29T03:46:31.249Z,1000.70
2022-11-29T03:47:31.230Z,1000.67
2022-11-29T03:48:31.207Z,1000.70
2022-11-29T03:49:31.212Z,1000.67
2022-11-29T03:50:31.165Z,1000.69
2022-11-29T03:51:31.182Z,1000.68
2022-11-29T03:52:31.153Z,1000.68
2022-11-29T03:53:31.168Z,1000.70
2022-11-29T03:54:31.131Z,1000.72
2022-11-29T03:55:31.129Z,1000.72
2022-11-29T03:56:31.097Z,1000.72
2022-11-29T03:57:31.104Z,1000.77
2022-11-29T03:58:31.093Z,1000.71
2022-11-29T03:59:31.107Z,1000.72
2022-11-29T04:00:31.053Z,1000.75
2022-11-29T04:01:31.117Z,1000.78
2022-11-29T04:02:31.160Z,1000.76
2022-11-29T04:03:31.027Z,1000.72
2022-11-29T04:04:31.045Z,1000.75
2022-11-29T04:05:31.009Z,1000.75
2022-11-29T04:06:30.986Z,1000.77
2022-11-29T04:07:31.028Z,1000.74
2022-11-29T04:08:30.965Z,1000.78
2022-11-29T04:09:30.984Z,1000.76
2022-11-29T04:10:31.984Z,1000.78
2022-11-29T04:11:30.946Z,1000.77
2022-11-29T04:12:30.956Z,1000.74
2022-11-29T04:13:30.962Z,1000.74
2022-11-29T04:14:30.904Z,1000.70
2022-11-29T04:15:30.931Z,1000.74
2022-11-29T04:16:30.876Z,1000.72
2022-11-29T04:17:30.926Z,1000.74
2022-11-29T04:18:30.877Z,1000.78
2022-11-29T04:19:30.884Z,1000.77
2022-11-29T04:20:34.944Z,1000.76
2022-11-29T04:21:31.852Z,1000.76
2022-11-29T04:22:30.858Z,1000.77
2022-11-29T04:23:30.832Z,1000.79
2022-11-29T04:24:30.798Z,1000.78
2022-11-29T04:25:30.833Z,1000.83
2022-11-29T04:26:34.866Z,1000.82
2022-11-29T04:27:30.780Z,1000.82
2022-11-29T04:28:30.760Z,1000.77
2022-11-29T04:29:30.775Z,1000.82
2022-11-29T04:30:30.762Z,1000.82
2022-11-29T04:31:31.045Z,1000.87
2022-11-29T04:32:30.722Z,1000.86
2022-11-29T04:33:30.746Z,1000.86
2022-11-29T04:34:30.721Z,1000.93
2022-11-29T04:35:30.720Z,1000.94
2022-11-29T04:36:30.689Z,1000.90
2022-11-29T04:37:30.703Z,1000.94
2022-11-29T04:38:30.660Z,1000.93
2022-11-29T04:39:30.704Z,1000.92
2022-11-29T04:40:30.659Z,1000.96
2022-11-29T04:41:30.640Z,1000.96
2022-11-29T04:42:30.631Z,1000.98
2022-11-29T04:43:30.602Z,1000.94
2022-11-29T04:44:30.580Z,1000.98
2022-11-29T04:45:30.595Z,1001.01
2022-11-29T04:46:30.702Z,1000.97
2022-11-29T04:47:30.559Z,1001.00
2022-11-29T04:48:30.585Z,1001.04
2022-11-29T04:49:30.531Z,1001.01
2022-11-29T04:50:37.560Z,1001.01
2022-11-29T04:51:30.509Z,1001.03
2022-11-29T04:52:37.545Z,1001.05
2022-11-29T04:53:30.514Z,1001.05
2022-11-29T04:54:30.487Z,1001.10
2022-11-29T04:55:31.217Z,1001.07
2022-11-29T04:56:31.151Z,1001.11
2022-11-29T04:57:30.444Z,1001.03
2022-11-29T04:58:30.493Z,1001.08
2022-11-29T04:59:30.437Z,1001.10
2022-11-29T05:00:30.438Z,1001.17
2022-11-29T05:01:30.457Z,1001.18
2022-11-29T05:02:30.453Z,1001.12
2022-11-29T05:03:30.429Z,1001.14
2022-11-29T05:04:30.401Z,1001.18
2022-11-29T05:05:30.358Z,1001.13
2022-11-29T05:06:30.388Z,1001.16
2022-11-29T05:07:30.408Z,1001.16
2022-11-29T05:08:30.350Z,1001.13
2022-11-29T05:09:30.397Z,1001.17
2022-11-29T05:10:30.317Z,1001.14
2022-11-29T05:11:30.307Z,1001.23
2022-11-29T05:12:30.307Z,1001.18
2022-11-29T05:13:33.307Z,1001.23
2022-11-29T05:14:30.316Z,1001.18
2022-11-29T05:15:30.279Z,1001.21
2022-11-29T05:16:30.306Z,1001.20
2022-11-29T05:17:30.267Z,1001.23
2022-11-29T05:18:30.260Z,1001.24
2022-11-29T05:19:30.241Z,1001.23
2022-11-29T05:20:30.250Z,1001.24
2022-11-29T05:21:30.242Z,1001.25
2022-11-29T05:22:30.234Z,1001.25
2022-11-29T05:23:30.195Z,1001.24
2022-11-29T05:24:30.192Z,1001.23
2022-11-29T05:25:30.183Z,1001.23
2022-11-29T05:26:30.183Z,1001.24
2022-11-29T05:27:30.135Z,1001.26
2022-11-29T05:28:30.149Z,1001.27
2022-11-29T05:29:30.122Z,1001.28
2022-11-29T05:30:30.155Z,1001.33
2022-11-29T05:31:30.147Z,1001.36
2022-11-29T05:32:30.117Z,1001.34
2022-11-29T05:33:30.085Z,1001.32
2022-11-29T05:34:34.676Z,1001.37
2022-11-29T05:35:31.076Z,1001.36
2022-11-29T05:36:30.061Z,1001.35
2022-11-29T05:37:30.059Z,1001.38
2022-11-29T05:38:30.046Z,1001.39
2022-11-29T05:39:30.021Z,1001.41
2022-11-29T05:40:30.052Z,1001.41
2022-11-29T05:41:30.034Z,1001.40
2022-11-29T05:42:30.003Z,1001.40
2022-11-29T05:43:29.982Z,1001.38
2022-11-29T05:44:29.995Z,1001.38
2022-11-29T05:45:29.959Z,1001.45
2022-11-29T05:46:30.047Z,1001.44
2022-11-29T05:47:31.633Z,1001.46
2022-11-29T05:48:29.936Z,1001.49
2022-11-29T05:49:29.915Z,1001.51
2022-11-29T05:50:29.948Z,1001.53
2022-11-29T05:51:29.958Z,1001.55
2022-11-29T05:52:29.897Z,1001.51
2022-11-29T05:53:29.883Z,1001.55
2022-11-29T05:54:29.879Z,1001.53
2022-11-29T05:55:29.872Z,1001.54
2022-11-29T05:56:29.855Z,1001.51
2022-11-29T05:57:29.870Z,1001.48
2022-11-29T05:58:30.797Z,1001.55
2022-11-29T05:59:29.819Z,1001.52
2022-11-29T06:00:29.809Z,1001.56
2022-11-29T06:01:29.884Z,1001.50
2022-11-29T06:02:29.847Z,1001.49
2022-11-29T06:03:29.789Z,1001.57
2022-11-29T06:04:32.801Z,1001.54
2022-11-29T06:05:29.745Z,1001.51
2022-11-29T06:06:29.763Z,1001.55
2022-11-29T06:07:29.829Z,1001.55
2022-11-29T06:08:29.748Z,1001.55
2022-11-29T06:09:29.726Z,1001.53
2022-11-29T06:10:29.708Z,1001.57
2022-11-29T06:11:29.685Z,1001.58
2022-11-29T06:12:29.702Z,1001.59
2022-11-29T06:13:29.675Z,1001.55
2022-11-29T06:14:29.679Z,1001.60
2022-11-29T06:15:29.903Z,1001.60
2022-11-29T06:16:29.728Z,1001.60
2022-11-29T06:17:32.018Z,1001.57
2022-11-29T06:18:30.649Z,1001.60
2022-11-29T06:19:29.626Z,1001.61
2022-11-29T06:20:29.608Z,1001.60
2022-11-29T06:21:29.575Z,1001.61
2022-11-29T06:22:29.613Z,1001.67
2022-11-29T06:23:29.574Z,1001.66
2022-11-29T06:24:29.577Z,1001.64
2022-11-29T06:25:29.545Z,1001.65
2022-11-29T06:26:29.565Z,1001.64
2022-11-29T06:27:29.542Z,1001.68
2022-11-29T06:28:29.531Z,1001.67
2022-11-29T06:29:29.506Z,1001.68
2022-11-29T06:30:29.502Z,1001.70
2022-11-29T06:31:29.558Z,1001.72
2022-11-29T06:32:29.494Z,1001.72
2022-11-29T06:33:29.500Z,1001.77
2022-11-29T06:34:31.013Z,1001.80
2022-11-29T06:35:29.456Z,1001.75
2022-11-29T06:36:29.443Z,1001.78
2022-11-29T06:37:29.442Z,1001.77
2022-11-29T06:38:29.450Z,1001.81
2022-11-29T06:39:29.454Z,1001.79
2022-11-29T06:40:29.393Z,1001.79
2022-11-29T06:41:29.363Z,1001.76
2022-11-29T06:42:29.376Z,1001.79
2022-11-29T06:43:29.403Z,1001.82
2022-11-29T06:44:29.356Z,1001.85
2022-11-29T06:45:29.344Z,1001.84
2022-11-29T06:46:29.441Z,1001.85
2022-11-29T06:47:29.304Z,1001.89
2022-11-29T06:48:29.331Z,1001.87
2022-11-29T06:49:29.305Z,1001.92
2022-11-29T06:50:29.316Z,1001.93
2022-11-29T06:51:29.270Z,1001.92
2022-11-29T06:52:29.273Z,1001.92
2022-11-29T06:53:29.264Z,1001.96
2022-11-29T06:54:29.299Z,1001.95
2022-11-29T06:55:29.417Z,1001.96
2022-11-29T06:56:29.249Z,1001.99
2022-11-29T06:57:29.238Z,1001.98
2022-11-29T06:58:34.519Z,1001.95
2022-11-29T06:59:30.262Z,1001.96
2022-11-29T07:00:29.321Z,1002.01
2022-11-29T07:01:29.183Z,1001.99
2022-11-29T07:02:29.306Z,1001.98
2022-11-29T07:03:29.150Z,1002.02
2022-11-29T07:04:29.155Z,1002.00
2022-11-29T07:05:29.147Z,1002.02
2022-11-29T07:06:29.154Z,1002.00
2022-11-29T07:07:29.212Z,1002.01
2022-11-29T07:08:29.119Z,1002.04
2022-11-29T07:09:29.098Z,1002.07
2022-11-29T07:10:29.101Z,1002.08
2022-11-29T07:11:29.070Z,1002.11
2022-11-29T07:12:29.067Z,1002.12
2022-11-29T07:13:29.062Z,1002.08
2022-11-29T07:14:29.094Z,1002.12
2022-11-29T07:15:29.052Z,1002.14
2022-11-29T07:16:29.093Z,1002.15
2022-11-29T07:17:29.003Z,1002.18
2022-11-29T07:18:29.025Z,1002.14
2022-11-29T07:19:28.980Z,1002.15
2022-11-29T07:20:29.037Z,1002.17
2022-11-29T07:21:28.977Z,1002.15
2022-11-29T07:22:28.956Z,1002.13
2022-11-29T07:23:28.932Z,1002.10
2022-11-29T07:24:28.964Z,1002.12
2022-11-29T07:25:28.978Z,1002.17
2022-11-29T07:26:28.908Z,1002.20
2022-11-29T07:27:28.896Z,1002.20
2022-11-29T07:28:28.891Z,1002.18
2022-11-29T07:29:28.889Z,1002.15
2022-11-29T07:30:28.901Z,1002.15
2022-11-29T07:31:28.920Z,1002.17
2022-11-29T07:32:28.920Z,1002.19
2022-11-29T07:33:28.830Z,1002.15
2022-11-29T07:34:28.824Z,1002.21
2022-11-29T07:35:28.832Z,1002.15
2022-11-29T07:36:28.836Z,1002.18
2022-11-29T07:37:28.780Z,1002.14
2022-11-29T07:38:28.856Z,1002.18
2022-11-29T07:39:28.760Z,1002.22
2022-11-29T07:40:31.933Z,1002.21
2022-11-29T07:41:29.827Z,1002.27
2022-11-29T07:42:28.743Z,1002.21
2022-11-29T07:43:28.724Z,1002.22
2022-11-29T07:44:28.729Z,1002.27
2022-11-29T07:45:28.694Z,1002.28
2022-11-29T07:46:28.778Z,1002.30
2022-11-29T07:47:34.113Z,1002.29
2022-11-29T07:48:29.681Z,1002.30
2022-11-29T07:49:28.676Z,1002.31
2022-11-29T07:50:28.690Z,1002.33
2022-11-29T07:51:28.636Z,1002.31
2022-11-29T07:52:28.649Z,1002.31
2022-11-29T07:53:28.626Z,1002.30
2022-11-29T07:54:28.685Z,1002.33
2022-11-29T07:55:28.616Z,1002.30
2022-11-29T07:56:28.624Z,1002.29
2022-11-29T07:57:28.613Z,1002.31
2022-11-29T07:58:28.644Z,1002.31
2022-11-29T07:59:28.559Z,1002.36
2022-11-29T08:00:28.579Z,1002.32
2022-11-29T08:01:28.597Z,1002.33
2022-11-29T08:02:28.610Z,1002.33
2022-11-29T08:03:28.564Z,1002.35
2022-11-29T08:04:28.532Z,1002.39
2022-11-29T08:05:28.502Z,1002.37
2022-11-29T08:06:28.496Z,1002.40
2022-11-29T08:07:28.485Z,1002.44
2022-11-29T08:08:28.548Z,1002.42
2022-11-29T08:09:28.483Z,1002.44
2022-11-29T08:10:28.491Z,1002.42
2022-11-29T08:11:28.445Z,1002.44
2022-11-29T08:12:28.440Z,1002.47
2022-11-29T08:13:28.486Z,1002.46
2022-11-29T08:14:28.402Z,1002.49
2022-11-29T08:15:28.393Z,1002.45
2022-11-29T08:16:28.449Z,1002.51
2022-11-29T08:17:28.377Z,1002.49
2022-11-29T08:18:28.410Z,1002.52
2022-11-29T08:19:28.360Z,1002.52
2022-11-29T08:20:28.334Z,1002.53
2022-11-29T08:21:28.337Z,1002.53
2022-11-29T08:22:28.358Z,1002.57
2022-11-29T08:23:28.331Z,1002.52
2022-11-29T08:24:28.371Z,1002.60
2022-11-29T08:25:28.292Z,1002.53
2022-11-29T08:26:31.598Z,1002.52
2022-11-29T08:27:28.284Z,1002.54
2022-11-29T08:28:28.279Z,1002.55
2022-11-29T08:29:28.294Z,1002.54
2022-11-29T08:30:28.302Z,1002.57
2022-11-29T08:31:28.250Z,1002.60
2022-11-29T08:32:28.224Z,1002.59
2022-11-29T08:33:28.210Z,1002.60
2022-11-29T08:34:28.238Z,1002.61
2022-11-29T08:35:28.185Z,1002.60
2022-11-29T08:36:28.209Z,1002.63
2022-11-29T08:37:28.161Z,1002.66
2022-11-29T08:38:28.171Z,1002.63
2022-11-29T08:39:28.157Z,1002.64
2022-11-29T08:40:28.173Z,1002.67
2022-11-29T08:41:28.134Z,1002.71
2022-11-29T08:42:28.139Z,1002.70
2022-11-29T08:43:28.107Z,1002.72
2022-11-29T08:44:28.154Z,1002.71
2022-11-29T08:45:28.129Z,1002.76
2022-11-29T08:46:28.107Z,1002.72
2022-11-29T08:47:28.088Z,1002.70
2022-11-29T08:48:28.056Z,1002.74
2022-11-29T08:49:28.026Z,1002.73
2022-11-29T08:50:28.069Z,1002.77
2022-11-29T08:51:28.025Z,1002.78
2022-11-29T08:52:28.044Z,1002.78
2022-11-29T08:53:28.046Z,1002.81
2022-11-29T08:54:27.993Z,1002.83
2022-11-29T08:55:28.073Z,1002.83
2022-11-29T08:57:39.720Z,1002.83
2022-11-29T08:58:28.963Z,1002.88
2022-11-29T08:59:27.967Z,1002.89
2022-11-29T09:00:27.968Z,1002.93
2022-11-29T09:01:27.969Z,1002.91
2022-11-29T09:02:27.981Z,1002.93
2022-11-29T09:03:27.914Z,1002.92
2022-11-29T09:04:27.868Z,1002.93
2022-11-29T09:05:27.903Z,1002.97
2022-11-29T09:06:27.881Z,1002.99
2022-11-29T09:07:27.939Z,1002.93
2022-11-29T09:08:27.836Z,1002.99
2022-11-29T09:09:27.853Z,1002.98
2022-11-29T09:10:27.830Z,1002.99
2022-11-29T09:11:27.843Z,1003.02
2022-11-29T09:12:27.792Z,1002.99
2022-11-29T09:13:27.795Z,1002.99
2022-11-29T09:14:27.774Z,1003.02
2022-11-29T09:15:27.795Z,1003.04
2022-11-29T09:16:27.824Z,1003.06
2022-11-29T09:17:27.776Z,1003.04
2022-11-29T09:18:27.737Z,1003.04
2022-11-29T09:19:27.728Z,1003.06
2022-11-29T09:20:27.722Z,1003.09
2022-11-29T09:21:27.727Z,1003.07
2022-11-29T09:22:27.716Z,1003.09
2022-11-29T09:23:27.696Z,1003.10
2022-11-29T09:24:27.655Z,1003.09
2022-11-29T09:25:27.673Z,1003.09
2022-11-29T09:26:27.684Z,1003.09
2022-11-29T09:27:27.666Z,1003.10
2022-11-29T09:28:27.632Z,1003.12
2022-11-29T09:29:27.657Z,1003.08
2022-11-29T09:30:27.599Z,1003.11
2022-11-29T09:31:27.667Z,1003.10
2022-11-29T09:32:27.650Z,1003.13
2022-11-29T09:33:27.595Z,1003.14
2022-11-29T09:34:27.563Z,1003.11
2022-11-29T09:35:27.601Z,1003.14
2022-11-29T09:36:29.068Z,1003.16
2022-11-29T09:37:27.576Z,1003.16
2022-11-29T09:38:27.536Z,1003.21
2022-11-29T09:39:27.525Z,1003.26
2022-11-29T09:40:27.516Z,1003.27
2022-11-29T09:41:27.511Z,1003.29
2022-11-29T09:42:27.506Z,1003.30
2022-11-29T09:43:27.481Z,1003.27
2022-11-29T09:44:27.475Z,1003.34
2022-11-29T09:45:27.480Z,1003.34
2022-11-29T09:46:27.459Z,1003.30
2022-11-29T09:47:27.445Z,1003.29
2022-11-29T09:48:27.548Z,1003.34
2022-11-29T09:49:27.423Z,1003.33
2022-11-29T09:50:27.428Z,1003.32
2022-11-29T09:51:27.409Z,1003.33
2022-11-29T09:52:27.387Z,1003.37
2022-11-29T09:53:27.667Z,1003.36
2022-11-29T09:54:27.373Z,1003.34
2022-11-29T09:55:27.362Z,1003.36
2022-11-29T09:56:27.339Z,1003.37
2022-11-29T09:57:27.334Z,1003.38
2022-11-29T09:58:27.323Z,1003.33
2022-11-29T09:59:27.305Z,1003.34
2022-11-29T10:00:27.320Z,1003.38
2022-11-29T10:01:27.367Z,1003.42
2022-11-29T10:02:27.332Z,1003.39
2022-11-29T10:03:27.268Z,1003.42
2022-11-29T10:04:27.257Z,1003.41
2022-11-29T10:05:27.254Z,1003.38
2022-11-29T10:06:27.282Z,1003.44
2022-11-29T10:07:27.357Z,1003.42
2022-11-29T10:08:27.200Z,1003.43
2022-11-29T10:09:32.227Z,1003.45
2022-11-29T10:10:28.189Z,1003.44
2022-11-29T10:11:27.200Z,1003.44
2022-11-29T10:12:27.228Z,1003.40
2022-11-29T10:13:27.172Z,1003.46
2022-11-29T10:14:27.157Z,1003.42
2022-11-29T10:15:27.167Z,1003.44
2022-11-29T10:16:27.209Z,1003.41
2022-11-29T10:17:27.142Z,1003.40
2022-11-29T10:18:27.127Z,1003.37
2022-11-29T10:19:27.104Z,1003.39
2022-11-29T10:20:27.108Z,1003.37
2022-11-29T10:21:27.165Z,1003.34
2022-11-29T10:22:27.062Z,1003.39
2022-11-29T10:23:27.106Z,1003.35
2022-11-29T10:24:27.041Z,1003.32
2022-11-29T10:25:27.048Z,1003.38
2022-11-29T10:26:32.008Z,1003.34
2022-11-29T10:27:28.051Z,1003.29
2022-11-29T10:28:26.996Z,1003.31
2022-11-29T10:29:27.003Z,1003.35
2022-11-29T10:30:27.036Z,1003.32
2022-11-29T10:31:27.014Z,1003.34
2022-11-29T10:32:26.990Z,1003.32
2022-11-29T10:33:26.966Z,1003.36
2022-11-29T10:34:26.957Z,1003.34
2022-11-29T10:35:26.947Z,1003.32
2022-11-29T10:36:26.932Z,1003.36
2022-11-29T10:37:26.930Z,1003.35
2022-11-29T10:38:31.475Z,1003.33
2022-11-29T10:39:27.886Z,1003.34
2022-11-29T10:40:26.872Z,1003.33
2022-11-29T10:41:26.901Z,1003.33
2022-11-29T10:42:26.877Z,1003.36
2022-11-29T10:43:26.847Z,1003.36
2022-11-29T10:44:26.841Z,1003.36
2022-11-29T10:45:26.835Z,1003.36
2022-11-29T10:46:26.848Z,1003.34
2022-11-29T10:47:26.832Z,1003.36
2022-11-29T10:48:26.808Z,1003.34
2022-11-29T10:49:26.799Z,1003.37
2022-11-29T10:50:26.756Z,1003.35
2022-11-29T10:51:26.806Z,1003.33
2022-11-29T10:52:26.739Z,1003.30
2022-11-29T10:53:26.775Z,1003.33
2022-11-29T10:54:26.746Z,1003.32
2022-11-29T10:55:26.759Z,1003.34
2022-11-29T10:56:26.744Z,1003.30
2022-11-29T10:57:26.710Z,1003.29
2022-11-29T10:58:28.543Z,1003.29
2022-11-29T10:59:26.713Z,1003.33
2022-11-29T11:00:26.682Z,1003.29
2022-11-29T11:01:26.739Z,1003.30
2022-11-29T11:02:26.665Z,1003.32
2022-11-29T11:03:26.635Z,1003.30
2022-11-29T11:04:26.645Z,1003.33
2022-11-29T11:05:26.708Z,1003.34
2022-11-29T11:06:26.595Z,1003.31
2022-11-29T11:07:26.673Z,1003.28
2022-11-29T11:08:26.576Z,1003.28
2022-11-29T11:09:26.625Z,1003.30
2022-11-29T11:10:26.568Z,1003.33
2022-11-29T11:11:26.567Z,1003.30
2022-11-29T11:12:26.554Z,1003.28
2022-11-29T11:13:26.537Z,1003.30
2022-11-29T11:14:26.516Z,1003.29
2022-11-29T11:15:26.579Z,1003.36
2022-11-29T11:16:26.531Z,1003.32
2022-11-29T11:17:26.629Z,1003.29
2022-11-29T11:18:26.481Z,1003.31
2022-11-29T11:19:26.468Z,1003.35
2022-11-29T11:20:26.486Z,1003.33
2022-11-29T11:21:26.470Z,1003.28
2022-11-29T11:22:26.457Z,1003.32
2022-11-29T11:23:26.453Z,1003.34
2022-11-29T11:24:26.427Z,1003.33
2022-11-29T11:25:26.445Z,1003.34
2022-11-29T11:26:26.380Z,1003.31
2022-11-29T11:27:26.402Z,1003.34
2022-11-29T11:28:26.382Z,1003.32
2022-11-29T11:29:26.390Z,1003.34
2022-11-29T11:30:26.405Z,1003.34
2022-11-29T11:31:26.345Z,1003.33
2022-11-29T11:32:26.329Z,1003.37
2022-11-29T11:33:26.376Z,1003.39
2022-11-29T11:34:26.308Z,1003.36
2022-11-29T11:35:26.308Z,1003.41
2022-11-29T11:36:26.283Z,1003.39
2022-11-29T11:37:26.315Z,1003.41
2022-11-29T11:38:26.288Z,1003.41
2022-11-29T11:39:26.290Z,1003.43
2022-11-29T11:40:26.406Z,1003.41
2022-11-29T11:41:26.238Z,1003.41
2022-11-29T11:42:26.232Z,1003.41
2022-11-29T11:43:26.225Z,1003.41
2022-11-29T11:44:58.026Z,1003.43
2022-11-29T11:45:27.207Z,1003.43
2022-11-29T11:46:26.220Z,1003.42
2022-11-29T11:47:26.214Z,1003.43
2022-11-29T11:48:26.152Z,1003.41
2022-11-29T11:49:26.181Z,1003.45
2022-11-29T11:50:26.146Z,1003.46
2022-11-29T11:51:26.193Z,1003.44
2022-11-29T11:52:26.110Z,1003.44
2022-11-29T11:53:26.124Z,1003.46
2022-11-29T11:54:26.126Z,1003.47
2022-11-29T11:55:26.093Z,1003.50
2022-11-29T11:56:26.091Z,1003.48
2022-11-29T11:57:26.077Z,1003.53
2022-11-29T11:58:26.063Z,1003.52
2022-11-29T11:59:26.058Z,1003.55
2022-11-29T12:00:55.472Z,1003.55
2022-11-29T12:01:27.057Z,1003.57
2022-11-29T12:02:26.108Z,1003.52
2022-11-29T12:03:26.073Z,1003.59
2022-11-29T12:04:26.003Z,1003.55
2022-11-29T12:05:25.982Z,1003.55
2022-11-29T12:06:25.983Z,1003.58